Time;durP1;ratioP1;P1;durP2;ratioP2;P2;SDS_P1;SDS_P2;PMS_P1;PMS_P2;Temp;Humidity;BMP_temperature;BMP_pressure;BME280_temperature;BME280_humidity;BME280_pressure;Samples;Min_cycle;Max_cycle;Signal;HPM_P1;HPM_P2
2022/07/28 00:00:05;;;;;;;;;;;;;;;;;;5135957;27;19911;-86
2022/07/28 00:02:31;;;;;;;;;;;;;;;;;;5135708;27;19916;-86
2022/07/28 00:04:56;;;;;;;;;;;;;;;;;;5135627;27;19922;-86
2022/07/28 00:07:21;;;;;;;;;;;;;;;;;;5117444;27;20010;-86
2022/07/28 00:09:47;;;;;;;;;;;;;;;;;;5135263;27;20298;-86
2022/07/28 00:12:12;;;;;;;;;;;;;;;;;;5140086;28;19915;-86
2022/07/28 00:14:37;;;;;;;;;;;;;;;;;;5143293;27;19926;-87
2022/07/28 00:17:03;;;;;;;;;;;;;;;;;;5134918;27;19955;-86
2022/07/28 00:19:28;;;;;;;;;;;;;;;;;;5137344;27;19922;-86
2022/07/28 00:21:54;;;;;;;;;;;;;;;;;;5134767;28;19968;-87
2022/07/28 00:24:19;;;;;;;;;;;;;;;;;;5135559;27;19922;-86
2022/07/28 00:26:44;;;;;;;;;;;;;;;;;;5136066;27;19922;-87
2022/07/28 00:29:10;;;;;;;;;;;;;;;;;;5136087;27;19916;-86
2022/07/28 00:31:35;;;;;;;;;;;;;;;;;;5135203;27;20272;-86
2022/07/28 00:34:00;;;;;;;;;;;;;;;;;;5145767;27;19915;-86
2022/07/28 00:36:25;;;;;;;;;;;;;;;;;;5139371;27;19927;-86
2022/07/28 00:38:51;;;;;;;;;;;;;;;;;;5133810;27;19930;-84
2022/07/28 00:41:18;;;;;;;;;;;;;;;;;;5134667;27;19915;-87
2022/07/28 00:43:44;;;;;;;;;;;;;;;;;;5136339;27;19919;-87
2022/07/28 00:46:10;;;;;;;;;;;;;;;;;;5134354;27;19977;-83
2022/07/28 00:48:39;;;;;;;;;;;;;;;;;;5134256;27;19932;-86
2022/07/28 00:51:06;;;;;;;;;;;;;;;;;;5135547;27;19919;-84
2022/07/28 00:53:31;;;;;;;;;;;;;;;;;;5133772;28;19915;-82
2022/07/28 00:55:56;;;;;;;;;;;;;;;;;;5142145;28;20045;-84
2022/07/28 00:58:22;;;;;;;;;;;;;;;;;;5135621;27;19915;-85
2022/07/28 01:00:47;;;;;;;;;;;;;;;;;;5136491;27;19920;-85
2022/07/28 01:03:12;;;;;;;;;;;;;;;;;;5121442;27;19915;-85
2022/07/28 01:05:42;;;;;;;;;;;;;;;;;;5139064;27;19919;-84
2022/07/28 01:08:23;;;;;;;;;;;;;;;;;;5137546;27;19998;-85
2022/07/28 01:10:53;;;;;;;;;;;;;;;;;;5120483;27;20032;-85
2022/07/28 01:13:26;;;;;;;;;;;;;;;;;;5137751;27;19915;-84
2022/07/28 01:15:54;;;;;;;;;;;;;;;;;;5145717;27;19968;-85
2022/07/28 01:18:20;;;;;;;;;;;;;;;;;;5142853;27;19974;-86
2022/07/28 01:20:46;;;;;;;;;;;;;;;;;;5137517;27;19911;-84
2022/07/28 01:23:16;;;;;;;;;;;;;;;;;;5137312;27;19916;-85
2022/07/28 01:25:58;;;;;;;;;;;;;;;;;;5139413;27;19923;-87
2022/07/28 01:28:26;;;;;;;;;;;;;;;;;;5137420;27;20256;-86
2022/07/28 01:30:55;;;;;;;;;;;;;;;;;;5119962;27;19915;-85
2022/07/28 01:33:23;;;;;;;;;;;;;;;;;;5138506;27;19921;-85
2022/07/28 01:35:50;;;;;;;;;;;;;;;;;;5137258;27;19994;-85
2022/07/28 01:38:15;;;;;;;;;;;;;;;;;;5148124;27;20329;-85
2022/07/28 01:40:41;;;;;;;;;;;;;;;;;;5137541;27;19922;-85
2022/07/28 01:43:08;;;;;;;;;;;;;;;;;;5136981;27;20350;-85
2022/07/28 01:45:34;;;;;;;;;;;;;;;;;;5137090;27;19916;-85
2022/07/28 01:47:59;;;;;;;;;;;;;;;;;;5138524;27;20249;-85
2022/07/28 01:50:25;;;;;;;;;;;;;;;;;;5137197;27;19916;-85
2022/07/28 01:52:50;;;;;;;;;;;;;;;;;;5137317;27;20342;-85
2022/07/28 01:55:16;;;;;;;;;;;;;;;;;;5136837;27;20253;-84
2022/07/28 01:57:41;;;;;;;;;;;;;;;;;;5140361;27;20313;-84
2022/07/28 02:00:08;;;;;;;;;;;;;;;;;;5141630;27;19930;-86
2022/07/28 02:02:34;;;;;;;;;;;;;;;;;;5138249;27;19915;-84
2022/07/28 02:04:59;;;;;;;;;;;;;;;;;;5136465;27;19915;-85
2022/07/28 02:07:25;;;;;;;;;;;;;;;;;;5138055;27;20299;-85
2022/07/28 02:09:50;;;;;;;;;;;;;;;;;;5119683;27;19915;-85
2022/07/28 02:12:16;;;;;;;;;;;;;;;;;;5136755;27;19958;-83
2022/07/28 02:14:41;;;;;;;;;;;;;;;;;;5136727;27;19954;-85
2022/07/28 02:17:10;;;;;;;;;;;;;;;;;;5137404;27;19916;-84
2022/07/28 02:19:36;;;;;;;;;;;;;;;;;;5143737;27;19975;-84
2022/07/28 02:22:01;;;;;;;;;;;;;;;;;;5154707;27;19922;-84
2022/07/28 02:24:26;;;;;;;;;;;;;;;;;;5155109;27;19922;-84
2022/07/28 02:26:59;;;;;;;;;;;;;;;;;;5153855;27;19937;-85
2022/07/28 02:29:25;;;;;;;;;;;;;;;;;;5139849;27;20393;-87
2022/07/28 02:32:00;;;;;;;;;;;;;;;;;;5136476;27;19915;-85
2022/07/28 02:34:26;;;;;;;;;;;;;;;;;;5136098;27;20316;-85
2022/07/28 02:36:58;;;;;;;;;;;;;;;;;;5136153;27;19923;-86
2022/07/28 02:39:43;;;;;;;;;;;;;;;;;;5136013;27;19915;-87
2022/07/28 02:42:11;;;;;;;;;;;;;;;;;;5143596;27;20228;-86
2022/07/28 02:44:40;;;;;;;;;;;;;;;;;;5135562;27;19916;-86
2022/07/28 02:47:07;;;;;;;;;;;;;;;;;;5118859;27;19919;-86
2022/07/28 02:49:33;;;;;;;;;;;;;;;;;;5136717;27;19912;-86
2022/07/28 02:51:58;;;;;;;;;;;;;;;;;;5136180;27;19922;-86
2022/07/28 02:54:24;;;;;;;;;;;;;;;;;;5135332;27;20194;-85
2022/07/28 02:56:49;;;;;;;;;;;;;;;;;;5136985;27;20009;-85
2022/07/28 02:59:15;;;;;;;;;;;;;;;;;;5135637;27;20010;-86
2022/07/28 03:01:41;;;;;;;;;;;;;;;;;;5119613;27;19922;-86
2022/07/28 03:04:06;;;;;;;;;;;;;;;;;;5141678;27;19919;-86
2022/07/28 03:06:32;;;;;;;;;;;;;;;;;;5135180;27;19915;-86
2022/07/28 03:08:57;;;;;;;;;;;;;;;;;;5136737;27;20325;-86
2022/07/28 03:11:22;;;;;;;;;;;;;;;;;;5135543;27;19919;-86
2022/07/28 03:13:48;;;;;;;;;;;;;;;;;;5136704;27;19922;-86
2022/07/28 03:16:13;;;;;;;;;;;;;;;;;;5136685;27;20343;-87
2022/07/28 03:18:38;;;;;;;;;;;;;;;;;;5136476;27;20013;-87
2022/07/28 03:21:04;;;;;;;;;;;;;;;;;;5135348;27;20368;-87
2022/07/28 03:23:32;;;;;;;;;;;;;;;;;;5140629;27;19919;-86
2022/07/28 03:25:59;;;;;;;;;;;;;;;;;;5136167;27;19973;-86
2022/07/28 03:28:25;;;;;;;;;;;;;;;;;;5135971;27;19916;-86
2022/07/28 03:30:55;;;;;;;;;;;;;;;;;;5134898;27;19915;-86
2022/07/28 03:33:20;;;;;;;;;;;;;;;;;;5135180;27;19922;-86
2022/07/28 03:35:47;;;;;;;;;;;;;;;;;;5135619;27;19915;-86
2022/07/28 03:38:13;;;;;;;;;;;;;;;;;;5135417;27;19916;-84
2022/07/28 03:40:38;;;;;;;;;;;;;;;;;;5135136;27;19919;-84
2022/07/28 03:43:06;;;;;;;;;;;;;;;;;;5135809;27;20333;-85
2022/07/28 03:45:33;;;;;;;;;;;;;;;;;;5138637;27;20257;-85
2022/07/28 03:47:59;;;;;;;;;;;;;;;;;;5134535;27;19981;-85
2022/07/28 03:50:25;;;;;;;;;;;;;;;;;;5134672;27;19915;-85
2022/07/28 03:52:51;;;;;;;;;;;;;;;;;;5135815;27;19921;-85
2022/07/28 03:55:16;;;;;;;;;;;;;;;;;;5135707;27;20302;-85
2022/07/28 03:57:41;;;;;;;;;;;;;;;;;;5136686;27;20302;-84
2022/07/28 04:00:07;;;;;;;;;;;;;;;;;;5136167;27;19915;-86
2022/07/28 04:02:33;;;;;;;;;;;;;;;;;;5135859;27;19915;-85
2022/07/28 04:04:59;;;;;;;;;;;;;;;;;;5138844;27;20218;-86
2022/07/28 04:07:24;;;;;;;;;;;;;;;;;;5139077;27;19990;-85
2022/07/28 04:09:49;;;;;;;;;;;;;;;;;;5117185;27;19915;-85
2022/07/28 04:12:15;;;;;;;;;;;;;;;;;;5135593;27;20415;-85
2022/07/28 04:14:40;;;;;;;;;;;;;;;;;;5134684;27;20010;-81
2022/07/28 04:17:05;;;;;;;;;;;;;;;;;;5134230;27;19921;-85
2022/07/28 04:19:31;;;;;;;;;;;;;;;;;;5136110;27;19923;-83
2022/07/28 04:21:56;;;;;;;;;;;;;;;;;;5117331;27;19916;-87
2022/07/28 04:24:21;;;;;;;;;;;;;;;;;;5134207;28;19916;-84
2022/07/28 04:26:46;;;;;;;;;;;;;;;;;;5138602;28;19915;-85
2022/07/28 04:29:12;;;;;;;;;;;;;;;;;;5138190;27;19923;-86
2022/07/28 04:31:37;;;;;;;;;;;;;;;;;;5135191;27;19919;-83
2022/07/28 04:34:02;;;;;;;;;;;;;;;;;;5137017;27;19915;-86
2022/07/28 04:36:28;;;;;;;;;;;;;;;;;;5121383;27;20287;-85
2022/07/28 04:38:53;;;;;;;;;;;;;;;;;;5139505;27;19998;-87
2022/07/28 04:41:18;;;;;;;;;;;;;;;;;;5140834;27;19922;-86
2022/07/28 04:43:44;;;;;;;;;;;;;;;;;;5139160;27;19916;-86
2022/07/28 04:46:09;;;;;;;;;;;;;;;;;;5149222;27;19920;-86
2022/07/28 04:48:35;;;;;;;;;;;;;;;;;;5139740;27;19950;-86
2022/07/28 04:51:00;;;;;;;;;;;;;;;;;;5139631;27;19916;-86
2022/07/28 04:53:27;;;;;;;;;;;;;;;;;;5139672;27;20259;-85
2022/07/28 04:55:54;;;;;;;;;;;;;;;;;;5137982;27;20380;-85
2022/07/28 04:58:19;;;;;;;;;;;;;;;;;;5139416;27;20248;-86
2022/07/28 05:00:44;;;;;;;;;;;;;;;;;;5139034;27;19948;-86
2022/07/28 05:03:10;;;;;;;;;;;;;;;;;;5139896;27;19916;-85
2022/07/28 05:05:35;;;;;;;;;;;;;;;;;;5138943;27;19922;-85
2022/07/28 05:08:00;;;;;;;;;;;;;;;;;;5147362;27;19957;-87
2022/07/28 05:10:26;;;;;;;;;;;;;;;;;;5139183;27;19915;-86
2022/07/28 05:12:53;;;;;;;;;;;;;;;;;;5139100;27;19915;-84
2022/07/28 05:15:18;;;;;;;;;;;;;;;;;;5138301;27;19915;-84
2022/07/28 05:17:44;;;;;;;;;;;;;;;;;;5139456;27;19933;-85
2022/07/28 05:20:12;;;;;;;;;;;;;;;;;;5139244;27;19916;-84
2022/07/28 05:22:43;;;;;;;;;;;;;;;;;;5138656;27;19915;-85
2022/07/28 05:25:18;;;;;;;;;;;;;;;;;;5139180;27;19915;-86
2022/07/28 05:27:44;;;;;;;;;;;;;;;;;;5140717;27;19916;-85
2022/07/28 05:33:39;;;;;;;;;;;;;;;;;;5053428;28;20306;-85
2022/07/28 05:36:04;;;;;;;;;;;;;;;;;;5056104;28;19917;-85
2022/07/28 05:38:30;;;;;;;;;;;;;;;;;;5108668;27;19916;-86
2022/07/28 05:40:55;;;;;;;;;;;;;;;;;;5138218;27;19915;-84
2022/07/28 05:43:21;;;;;;;;;;;;;;;;;;5138334;27;19919;-84
2022/07/28 05:45:46;;;;;;;;;;;;;;;;;;5136042;27;19917;-85
2022/07/28 05:48:11;;;;;;;;;;;;;;;;;;5140297;27;19994;-84
2022/07/28 05:50:37;;;;;;;;;;;;;;;;;;5142386;27;19920;-84
2022/07/28 05:53:02;;;;;;;;;;;;;;;;;;5137682;27;19980;-84
2022/07/28 05:55:28;;;;;;;;;;;;;;;;;;5138940;27;20014;-86
2022/07/28 05:57:53;;;;;;;;;;;;;;;;;;5120651;27;19922;-86
2022/07/28 06:00:19;;;;;;;;;;;;;;;;;;5138409;27;19979;-85
2022/07/28 06:02:46;;;;;;;;;;;;;;;;;;5137479;27;19944;-87
2022/07/28 06:05:11;;;;;;;;;;;;;;;;;;5137556;27;19938;-87
2022/07/28 06:07:36;;;;;;;;;;;;;;;;;;5137192;27;19915;-87
2022/07/28 06:10:02;;;;;;;;;;;;;;;;;;5141556;27;19963;-86
2022/07/28 06:12:27;;;;;;;;;;;;;;;;;;5140324;27;19916;-84
2022/07/28 06:14:53;;;;;;;;;;;;;;;;;;5138371;27;20005;-85
2022/07/28 06:17:18;;;;;;;;;;;;;;;;;;5137937;27;20006;-84
2022/07/28 06:19:43;;;;;;;;;;;;;;;;;;5136407;27;20340;-86
2022/07/28 06:22:09;;;;;;;;;;;;;;;;;;5137844;27;19928;-84
2022/07/28 06:24:34;;;;;;;;;;;;;;;;;;5137646;27;19923;-85
2022/07/28 06:27:01;;;;;;;;;;;;;;;;;;5137678;27;19951;-87
2022/07/28 06:29:29;;;;;;;;;;;;;;;;;;5137459;27;19915;-82
2022/07/28 06:31:56;;;;;;;;;;;;;;;;;;5145619;27;20329;-82
2022/07/28 06:34:21;;;;;;;;;;;;;;;;;;5136632;27;19916;-83
2022/07/28 06:36:47;;;;;;;;;;;;;;;;;;5136997;27;19923;-83
2022/07/28 06:39:12;;;;;;;;;;;;;;;;;;5136826;27;19915;-82
2022/07/28 06:41:40;;;;;;;;;;;;;;;;;;5136718;27;19919;-83
2022/07/28 06:44:07;;;;;;;;;;;;;;;;;;5135712;27;19946;-83
2022/07/28 06:46:32;;;;;;;;;;;;;;;;;;5136547;27;20013;-85
2022/07/28 06:48:58;;;;;;;;;;;;;;;;;;5137055;27;20052;-83
2022/07/28 06:51:23;;;;;;;;;;;;;;;;;;5138663;27;19916;-83
2022/07/28 06:53:48;;;;;;;;;;;;;;;;;;5140182;27;19981;-85
2022/07/28 06:56:14;;;;;;;;;;;;;;;;;;5134912;27;20351;-84
2022/07/28 06:58:39;;;;;;;;;;;;;;;;;;5134380;27;19923;-82
2022/07/28 07:01:06;;;;;;;;;;;;;;;;;;5135178;27;19992;-83
2022/07/28 07:03:31;;;;;;;;;;;;;;;;;;5136454;27;19916;-83
2022/07/28 07:05:57;;;;;;;;;;;;;;;;;;5136945;27;19915;-83
2022/07/28 07:08:22;;;;;;;;;;;;;;;;;;5136483;27;19915;-82
2022/07/28 07:10:47;;;;;;;;;;;;;;;;;;5136165;27;19922;-83
2022/07/28 07:13:13;;;;;;;;;;;;;;;;;;5143799;27;19973;-82
2022/07/28 07:15:38;;;;;;;;;;;;;;;;;;5137631;27;19915;-84
2022/07/28 07:18:03;;;;;;;;;;;;;;;;;;5134810;27;19916;-83
2022/07/28 07:20:29;;;;;;;;;;;;;;;;;;5136473;27;19923;-83
2022/07/28 07:22:54;;;;;;;;;;;;;;;;;;5136101;27;20346;-84
2022/07/28 07:25:19;;;;;;;;;;;;;;;;;;5136076;27;19937;-83
2022/07/28 07:27:45;;;;;;;;;;;;;;;;;;5136327;27;19915;-84
2022/07/28 07:30:10;;;;;;;;;;;;;;;;;;5136295;27;19918;-84
2022/07/28 07:32:36;;;;;;;;;;;;;;;;;;5136558;27;19964;-83
2022/07/28 07:35:01;;;;;;;;;;;;;;;;;;5144299;27;19919;-82
2022/07/28 07:37:26;;;;;;;;;;;;;;;;;;5137586;27;19917;-81
2022/07/28 07:39:52;;;;;;;;;;;;;;;;;;5136018;27;20018;-81
2022/07/28 07:42:17;;;;;;;;;;;;;;;;;;5136659;27;19911;-83
2022/07/28 07:44:43;;;;;;;;;;;;;;;;;;5135923;27;19916;-81
2022/07/28 07:47:08;;;;;;;;;;;;;;;;;;5135949;27;19915;-82
2022/07/28 07:49:34;;;;;;;;;;;;;;;;;;5136095;27;19973;-83
2022/07/28 07:51:59;;;;;;;;;;;;;;;;;;5136000;27;19922;-82
2022/07/28 07:54:24;;;;;;;;;;;;;;;;;;5139590;27;19907;-84
2022/07/28 07:56:49;;;;;;;;;;;;;;;;;;5144505;27;19919;-85
2022/07/28 07:59:15;;;;;;;;;;;;;;;;;;5137846;27;19994;-82
2022/07/28 08:01:40;;;;;;;;;;;;;;;;;;5135803;27;19923;-81
2022/07/28 08:04:06;;;;;;;;;;;;;;;;;;5135905;27;19988;-81
2022/07/28 08:06:31;;;;;;;;;;;;;;;;;;5135645;27;19922;-84
2022/07/28 08:08:56;;;;;;;;;;;;;;;;;;5138263;27;19911;-82
2022/07/28 08:11:21;;;;;;;;;;;;;;;;;;5142646;27;20014;-83
2022/07/28 08:13:47;;;;;;;;;;;;;;;;;;5142591;27;19916;-84
2022/07/28 08:16:12;;;;;;;;;;;;;;;;;;5152198;27;19923;-83
2022/07/28 08:18:37;;;;;;;;;;;;;;;;;;5142511;27;19919;-82
2022/07/28 08:21:03;;;;;;;;;;;;;;;;;;5142379;27;19912;-83
2022/07/28 08:23:28;;;;;;;;;;;;;;;;;;5142067;27;19951;-83
2022/07/28 08:25:54;;;;;;;;;;;;;;;;;;5142037;27;20295;-81
2022/07/28 08:28:19;;;;;;;;;;;;;;;;;;5142285;27;20292;-82
2022/07/28 08:30:45;;;;;;;;;;;;;;;;;;5142808;27;20280;-81
2022/07/28 08:33:10;;;;;;;;;;;;;;;;;;5145183;27;19964;-83
2022/07/28 08:35:35;;;;;;;;;;;;;;;;;;5144081;27;20010;-81
2022/07/28 08:38:01;;;;;;;;;;;;;;;;;;5149132;27;19994;-82
2022/07/28 08:40:32;;;;;;;;;;;;;;;;;;5147763;27;20002;-83
2022/07/28 08:43:08;;;;;;;;;;;;;;;;;;5142611;27;19915;-81
2022/07/28 08:45:34;;;;;;;;;;;;;;;;;;5142180;27;19915;-81
2022/07/28 08:48:00;;;;;;;;;;;;;;;;;;5142752;27;20329;-83
2022/07/28 08:50:25;;;;;;;;;;;;;;;;;;5146322;27;19937;-83
2022/07/28 08:52:51;;;;;;;;;;;;;;;;;;5145630;27;20332;-83
2022/07/28 08:55:21;;;;;;;;;;;;;;;;;;5142929;27;20341;-82
2022/07/28 08:57:46;;;;;;;;;;;;;;;;;;5154116;27;20006;-82
2022/07/28 09:00:12;;;;;;;;;;;;;;;;;;5143493;27;19915;-82
2022/07/28 09:02:39;;;;;;;;;;;;;;;;;;5142429;27;19926;-82
2022/07/28 09:05:05;;;;;;;;;;;;;;;;;;5141865;27;19965;-83
2022/07/28 09:07:30;;;;;;;;;;;;;;;;;;5140709;27;19916;-81
2022/07/28 09:09:56;;;;;;;;;;;;;;;;;;5140601;27;19916;-82
2022/07/28 09:12:21;;;;;;;;;;;;;;;;;;5142752;27;19915;-83
2022/07/28 09:14:46;;;;;;;;;;;;;;;;;;5142143;27;19922;-83
2022/07/28 09:17:12;;;;;;;;;;;;;;;;;;5143531;27;20260;-83
2022/07/28 09:19:37;;;;;;;;;;;;;;;;;;5152639;27;19925;-82
2022/07/28 09:22:02;;;;;;;;;;;;;;;;;;5138010;27;20005;-82
2022/07/28 09:24:31;;;;;;;;;;;;;;;;;;5138573;27;19916;-81
2022/07/28 09:27:00;;;;;;;;;;;;;;;;;;5137299;27;20346;-83
2022/07/28 09:29:25;;;;;;;;;;;;;;;;;;5138881;27;19915;-83
2022/07/28 09:31:51;;;;;;;;;;;;;;;;;;5138075;27;19998;-83
2022/07/28 09:34:16;;;;;;;;;;;;;;;;;;5138500;27;20333;-82
2022/07/28 09:36:42;;;;;;;;;;;;;;;;;;5119956;27;20363;-82
2022/07/28 09:39:07;;;;;;;;;;;;;;;;;;5147560;27;19911;-82
2022/07/28 09:41:49;;;;;;;;;;;;;;;;;;5139132;27;19921;-82
2022/07/28 09:44:18;;;;;;;;;;;;;;;;;;5136947;27;19915;-82
2022/07/28 09:46:43;;;;;;;;;;;;;;;;;;5138393;27;20374;-83
2022/07/28 09:49:08;;;;;;;;;;;;;;;;;;5138184;27;19915;-83
2022/07/28 09:51:34;;;;;;;;;;;;;;;;;;5137628;27;19916;-82
2022/07/28 09:54:07;;;;;;;;;;;;;;;;;;5138238;27;19968;-82
2022/07/28 09:56:32;;;;;;;;;;;;;;;;;;5138046;27;20002;-82
2022/07/28 09:58:59;;;;;;;;;;;;;;;;;;5140767;27;20343;-83
2022/07/28 10:01:25;;;;;;;;;;;;;;;;;;5142782;27;19965;-81
2022/07/28 10:03:52;;;;;;;;;;;;;;;;;;5136309;27;20042;-83
2022/07/28 10:06:28;;;;;;;;;;;;;;;;;;5136626;27;20014;-82
2022/07/28 10:08:53;;;;;;;;;;;;;;;;;;5136786;27;19950;-83
2022/07/28 10:11:20;;;;;;;;;;;;;;;;;;5136079;27;19943;-82
2022/07/28 10:13:52;;;;;;;;;;;;;;;;;;5136477;27;20256;-82
2022/07/28 10:16:18;;;;;;;;;;;;;;;;;;5136473;27;19937;-83
2022/07/28 10:18:44;;;;;;;;;;;;;;;;;;5138201;27;19922;-82
2022/07/28 10:21:12;;;;;;;;;;;;;;;;;;5145554;27;19916;-83
2022/07/28 10:23:38;;;;;;;;;;;;;;;;;;5137114;27;19922;-83
2022/07/28 10:26:08;;;;;;;;;;;;;;;;;;5137332;27;20298;-83
2022/07/28 10:28:34;;;;;;;;;;;;;;;;;;5137532;27;20031;-83
2022/07/28 10:31:00;;;;;;;;;;;;;;;;;;5137201;27;19988;-82
2022/07/28 10:33:25;;;;;;;;;;;;;;;;;;5135752;27;20321;-83
2022/07/28 10:35:51;;;;;;;;;;;;;;;;;;5136083;27;20009;-83
2022/07/28 10:38:16;;;;;;;;;;;;;;;;;;5137024;27;20021;-83
2022/07/28 10:40:43;;;;;;;;;;;;;;;;;;5148173;27;19964;-83
2022/07/28 10:43:08;;;;;;;;;;;;;;;;;;5138108;27;19915;-84
2022/07/28 10:45:34;;;;;;;;;;;;;;;;;;5135874;27;19923;-84
2022/07/28 10:47:59;;;;;;;;;;;;;;;;;;5136524;27;19923;-83
2022/07/28 10:50:24;;;;;;;;;;;;;;;;;;5136884;27;19955;-84
2022/07/28 10:52:50;;;;;;;;;;;;;;;;;;5137046;27;19915;-82
2022/07/28 10:55:21;;;;;;;;;;;;;;;;;;5118159;27;19920;-82
2022/07/28 10:57:53;;;;;;;;;;;;;;;;;;5136769;27;19921;-83
2022/07/28 11:00:23;;;;;;;;;;;;;;;;;;5139954;27;19903;-83
2022/07/28 11:02:55;;;;;;;;;;;;;;;;;;5140346;27;19919;-82
2022/07/28 11:05:37;;;;;;;;;;;;;;;;;;5137044;27;19927;-85
2022/07/28 11:08:03;;;;;;;;;;;;;;;;;;5137041;27;20026;-83
2022/07/28 11:10:28;;;;;;;;;;;;;;;;;;5136621;27;19950;-82
2022/07/28 11:12:54;;;;;;;;;;;;;;;;;;5136717;27;19915;-83
2022/07/28 11:15:26;;;;;;;;;;;;;;;;;;5134989;27;19921;-83
2022/07/28 11:18:10;;;;;;;;;;;;;;;;;;5134641;27;19915;-83
2022/07/28 11:21:01;;;;;;;;;;;;;;;;;;5137593;27;19964;-81
2022/07/28 11:23:45;;;;;;;;;;;;;;;;;;5138704;27;20255;-81
2022/07/28 11:26:23;;;;;;;;;;;;;;;;;;5134783;27;20404;-85
2022/07/28 11:29:11;;;;;;;;;;;;;;;;;;5135804;27;19922;-83
2022/07/28 11:31:42;;;;;;;;;;;;;;;;;;5124879;27;19915;-83
2022/07/28 11:34:08;;;;;;;;;;;;;;;;;;5134915;27;19915;-83
2022/07/28 11:36:52;;;;;;;;;;;;;;;;;;5134933;27;19916;-83
2022/07/28 11:39:21;;;;;;;;;;;;;;;;;;5136080;27;19915;-82
2022/07/28 11:41:47;;;;;;;;;;;;;;;;;;5144292;27;19907;-83
2022/07/28 11:44:25;;;;;;;;;;;;;;;;;;5137936;27;20010;-84
2022/07/28 11:46:50;;;;;;;;;;;;;;;;;;5134419;27;20336;-83
2022/07/28 11:49:16;;;;;;;;;;;;;;;;;;5135731;27;19915;-82
2022/07/28 11:52:02;;;;;;;;;;;;;;;;;;5135760;27;19955;-83
2022/07/28 11:54:27;;;;;;;;;;;;;;;;;;5135260;27;19964;-87
2022/07/28 11:56:56;;;;;;;;;;;;;;;;;;5134882;27;20317;-85
2022/07/28 11:59:21;;;;;;;;;;;;;;;;;;5137537;27;19923;-86
2022/07/28 12:01:50;;;;;;;;;;;;;;;;;;5151277;27;19978;-88
2022/07/28 12:04:15;;;;;;;;;;;;;;;;;;5135917;27;19923;-86
2022/07/28 12:06:41;;;;;;;;;;;;;;;;;;5136047;27;20310;-89
2022/07/28 12:09:07;;;;;;;;;;;;;;;;;;5136318;27;20244;-90
2022/07/28 12:11:36;;;;;;;;;;;;;;;;;;5136105;27;20018;-89
2022/07/28 12:14:03;;;;;;;;;;;;;;;;;;5136093;27;20396;-88
2022/07/28 12:16:28;;;;;;;;;;;;;;;;;;5135844;27;19916;-88
2022/07/28 12:18:54;;;;;;;;;;;;;;;;;;5136234;27;19923;-90
2022/07/28 12:21:35;;;;;;;;;;;;;;;;;;5144911;27;19915;-89
2022/07/28 12:24:00;;;;;;;;;;;;;;;;;;5145071;27;19915;-87
2022/07/28 12:26:29;;;;;;;;;;;;;;;;;;5136096;27;19923;-89
2022/07/28 12:28:55;;;;;;;;;;;;;;;;;;5135343;27;19915;-90
2022/07/28 12:31:24;;;;;;;;;;;;;;;;;;5136058;27;19916;-88
2022/07/28 12:33:50;;;;;;;;;;;;;;;;;;5134594;27;19915;-87
2022/07/28 12:36:17;;;;;;;;;;;;;;;;;;5135674;27;19938;-92
2022/07/28 12:38:42;;;;;;;;;;;;;;;;;;5134564;27;19915;-88
2022/07/28 12:41:12;;;;;;;;;;;;;;;;;;5135606;27;19964;-87
2022/07/28 12:43:37;;;;;;;;;;;;;;;;;;5152039;27;19983;-87
2022/07/28 12:46:03;;;;;;;;;;;;;;;;;;5137927;28;19969;-88
2022/07/28 12:48:28;;;;;;;;;;;;;;;;;;5116937;28;20002;-89
2022/07/28 12:50:53;;;;;;;;;;;;;;;;;;5134979;27;20341;-87
2022/07/28 12:53:21;;;;;;;;;;;;;;;;;;5135684;27;20002;-89
2022/07/28 12:55:47;;;;;;;;;;;;;;;;;;5135706;27;20277;-89
2022/07/28 12:58:28;;;;;;;;;;;;;;;;;;5137987;27;19915;-91
2022/07/28 13:00:53;;;;;;;;;;;;;;;;;;5139104;27;19927;-88
2022/07/28 13:03:23;;;;;;;;;;;;;;;;;;5146581;27;19920;-88
2022/07/28 13:06:03;;;;;;;;;;;;;;;;;;5149147;27;20304;-87
2022/07/28 13:08:41;;;;;;;;;;;;;;;;;;5139468;27;19938;-87
2022/07/28 13:11:07;;;;;;;;;;;;;;;;;;5139782;27;19924;-89
2022/07/28 13:13:48;;;;;;;;;;;;;;;;;;5138321;27;19922;-89
2022/07/28 13:16:13;;;;;;;;;;;;;;;;;;5138061;27;19915;-87
2022/07/28 13:18:40;;;;;;;;;;;;;;;;;;5139396;27;19938;-92
2022/07/28 13:21:05;;;;;;;;;;;;;;;;;;5137863;27;19972;-88
2022/07/28 13:23:30;;;;;;;;;;;;;;;;;;5141640;27;19916;-87
2022/07/28 13:25:55;;;;;;;;;;;;;;;;;;5155380;27;19920;-89
2022/07/28 13:28:24;;;;;;;;;;;;;;;;;;5123895;27;19915;-91
2022/07/28 13:30:50;;;;;;;;;;;;;;;;;;5137615;27;20013;-90
2022/07/28 13:33:15;;;;;;;;;;;;;;;;;;5121019;27;20053;-88
2022/07/28 13:35:41;;;;;;;;;;;;;;;;;;5139182;27;19915;-91
2022/07/28 13:38:06;;;;;;;;;;;;;;;;;;5138918;27;19915;-86
2022/07/28 13:40:31;;;;;;;;;;;;;;;;;;5139384;27;19915;-88
2022/07/28 13:42:57;;;;;;;;;;;;;;;;;;5138743;27;19922;-87
2022/07/28 13:45:22;;;;;;;;;;;;;;;;;;5146788;27;19970;-91
2022/07/28 13:47:48;;;;;;;;;;;;;;;;;;5149455;27;20273;-87
2022/07/28 13:50:13;;;;;;;;;;;;;;;;;;5139003;27;19973;-89
2022/07/28 13:52:38;;;;;;;;;;;;;;;;;;5138722;27;20009;-87
2022/07/28 13:55:05;;;;;;;;;;;;;;;;;;5138486;27;19919;-89
2022/07/28 13:57:33;;;;;;;;;;;;;;;;;;5138037;27;20407;-88
2022/07/28 13:59:58;;;;;;;;;;;;;;;;;;5138668;27;20244;-87
2022/07/28 14:02:23;;;;;;;;;;;;;;;;;;5138662;27;20348;-88
2022/07/28 14:04:49;;;;;;;;;;;;;;;;;;5138285;27;20276;-87
2022/07/28 14:07:14;;;;;;;;;;;;;;;;;;5152294;27;20345;-89
2022/07/28 14:09:39;;;;;;;;;;;;;;;;;;5144952;27;19922;-89
2022/07/28 14:12:05;;;;;;;;;;;;;;;;;;5138594;27;19923;-93
2022/07/28 14:14:30;;;;;;;;;;;;;;;;;;5137545;27;19916;-87
2022/07/28 14:16:56;;;;;;;;;;;;;;;;;;5138687;27;19915;-91
2022/07/28 14:19:22;;;;;;;;;;;;;;;;;;5136897;27;19915;-90
2022/07/28 14:21:47;;;;;;;;;;;;;;;;;;5137963;27;19966;-90
2022/07/28 14:24:12;;;;;;;;;;;;;;;;;;5137702;27;19981;-91
2022/07/28 14:26:38;;;;;;;;;;;;;;;;;;5139271;27;19927;-87
2022/07/28 14:29:03;;;;;;;;;;;;;;;;;;5148786;27;19920;-89
2022/07/28 14:31:28;;;;;;;;;;;;;;;;;;5136345;27;19990;-88
2022/07/28 14:33:54;;;;;;;;;;;;;;;;;;5137414;27;19958;-88
2022/07/28 14:36:19;;;;;;;;;;;;;;;;;;5136223;27;19962;-89
2022/07/28 14:38:46;;;;;;;;;;;;;;;;;;5137655;27;20005;-92
2022/07/28 14:41:11;;;;;;;;;;;;;;;;;;5137405;27;19915;-89
2022/07/28 14:43:36;;;;;;;;;;;;;;;;;;5135890;27;19915;-89
2022/07/28 14:46:02;;;;;;;;;;;;;;;;;;5138384;27;20343;-90
2022/07/28 14:48:28;;;;;;;;;;;;;;;;;;5145401;27;20034;-88
2022/07/28 14:50:55;;;;;;;;;;;;;;;;;;5155263;27;19907;-88
2022/07/28 14:53:21;;;;;;;;;;;;;;;;;;5154882;27;19914;-88
2022/07/28 14:55:47;;;;;;;;;;;;;;;;;;5156513;27;19908;-90
2022/07/28 14:58:12;;;;;;;;;;;;;;;;;;5150127;27;20393;-91
2022/07/28 15:00:37;;;;;;;;;;;;;;;;;;5140676;27;19976;-92
2022/07/28 15:03:02;;;;;;;;;;;;;;;;;;5140169;27;20245;-90
2022/07/28 15:05:28;;;;;;;;;;;;;;;;;;5139551;27;19919;-85
2022/07/28 15:07:53;;;;;;;;;;;;;;;;;;5137343;27;19916;-86
2022/07/28 15:10:19;;;;;;;;;;;;;;;;;;5146611;27;19927;-90
2022/07/28 15:12:44;;;;;;;;;;;;;;;;;;5147135;27;20006;-89
2022/07/28 15:15:10;;;;;;;;;;;;;;;;;;5137119;27;19964;-89
2022/07/28 15:17:36;;;;;;;;;;;;;;;;;;5136419;27;20313;-91
2022/07/28 15:20:04;;;;;;;;;;;;;;;;;;5134855;27;19923;-90
2022/07/28 15:22:30;;;;;;;;;;;;;;;;;;5136551;27;20345;-90
2022/07/28 15:24:55;;;;;;;;;;;;;;;;;;5136474;27;19922;-91
2022/07/28 15:27:22;;;;;;;;;;;;;;;;;;5142333;27;19931;-88
2022/07/28 15:29:47;;;;;;;;;;;;;;;;;;5147779;27;20645;-88
2022/07/28 15:32:13;;;;;;;;;;;;;;;;;;5154740;27;19920;-88
2022/07/28 15:34:38;;;;;;;;;;;;;;;;;;5153742;27;19950;-89
2022/07/28 15:37:03;;;;;;;;;;;;;;;;;;5120135;27;19984;-90
2022/07/28 15:39:28;;;;;;;;;;;;;;;;;;5136315;27;19916;-90
2022/07/28 15:41:54;;;;;;;;;;;;;;;;;;5136397;27;19920;-90
2022/07/28 15:44:20;;;;;;;;;;;;;;;;;;5136225;27;20345;-93
2022/07/28 15:46:45;;;;;;;;;;;;;;;;;;5135377;27;20249;-89
2022/07/28 15:49:10;;;;;;;;;;;;;;;;;;5135881;27;19923;-87
2022/07/28 15:51:36;;;;;;;;;;;;;;;;;;5139707;27;19981;-86
2022/07/28 15:54:02;;;;;;;;;;;;;;;;;;5148348;27;19930;-87
2022/07/28 15:56:27;;;;;;;;;;;;;;;;;;5138375;27;19915;-88
2022/07/28 15:58:53;;;;;;;;;;;;;;;;;;5136273;27;19994;-89
2022/07/28 16:01:19;;;;;;;;;;;;;;;;;;5135901;27;19973;-93
2022/07/28 16:03:44;;;;;;;;;;;;;;;;;;5135887;27;19915;-88
2022/07/28 16:06:09;;;;;;;;;;;;;;;;;;5134667;27;19922;-91
2022/07/28 16:08:35;;;;;;;;;;;;;;;;;;5135487;27;20011;-89
2022/07/28 16:11:01;;;;;;;;;;;;;;;;;;5135773;27;19915;-88
2022/07/28 16:13:26;;;;;;;;;;;;;;;;;;5144256;27;19931;-89
2022/07/28 16:15:51;;;;;;;;;;;;;;;;;;5145647;27;19919;-88
2022/07/28 16:18:17;;;;;;;;;;;;;;;;;;5136109;27;19915;-87
2022/07/28 16:20:44;;;;;;;;;;;;;;;;;;5134744;27;19922;-86
2022/07/28 16:23:09;;;;;;;;;;;;;;;;;;5135742;27;19915;-87
2022/07/28 16:25:34;;;;;;;;;;;;;;;;;;5135842;27;19916;-87
2022/07/28 16:28:02;;;;;;;;;;;;;;;;;;5135466;27;19929;-88
2022/07/28 16:30:29;;;;;;;;;;;;;;;;;;5137800;27;19915;-87
2022/07/28 16:32:57;;;;;;;;;;;;;;;;;;5138657;27;19926;-89
2022/07/28 16:35:22;;;;;;;;;;;;;;;;;;5150847;27;19942;-89
2022/07/28 16:37:48;;;;;;;;;;;;;;;;;;5151134;27;20336;-90
2022/07/28 16:40:13;;;;;;;;;;;;;;;;;;5138709;27;19964;-88
2022/07/28 16:42:38;;;;;;;;;;;;;;;;;;5138318;27;19964;-88
2022/07/28 16:45:04;;;;;;;;;;;;;;;;;;5139325;27;20286;-87